Terminal Aerodrome Forecast
Issued by NWS

Home | Current Version | Previous Version | Text Only | Print | Product List | Glossary On
Versions: 1 2 3 4 5 6 7 8 9 10 11 12 13 14
000
FTUS43 KIND 291730
TAFBMG
TAF
KBMG 291730Z 2918/3018 19006KT P6SM SCT050 BKN150
     FM292200 19003KT P6SM VCSH BKN050
     FM300600 20002KT 4SM BR BKN045
     FM301300 23005KT P6SM BKN035=

USA.gov is the U.S. government's official web portal to all federal, state and local government web resources and services.